createdAt,value
2019-01-31T00:01:45.634Z,1.60
2019-01-31T00:04:51.395Z,1.70
2019-01-31T00:07:51.014Z,1.70
2019-01-31T00:10:41.544Z,1.70
2019-01-31T00:13:47.966Z,1.60
2019-01-31T00:17:07.281Z,1.70
2019-01-31T00:20:05.661Z,1.70
2019-01-31T00:23:11.838Z,1.70
2019-01-31T00:26:30.111Z,1.70
2019-01-31T00:29:11.712Z,1.70
2019-01-31T00:32:02.533Z,1.80
2019-01-31T00:34:50.476Z,1.80
2019-01-31T00:37:45.440Z,1.80
2019-01-31T00:41:05.168Z,1.90
2019-01-31T00:44:13.603Z,1.90
2019-01-31T00:47:01.262Z,1.90
2019-01-31T00:50:16.747Z,1.80
2019-01-31T00:53:08.525Z,1.80
2019-01-31T00:56:17.714Z,1.80
2019-01-31T00:59:24.719Z,1.80
2019-01-31T01:02:40.235Z,1.80
2019-01-31T01:05:37.150Z,1.70
2019-01-31T01:08:49.389Z,1.80
2019-01-31T01:12:04.645Z,1.80
2019-01-31T01:15:26.579Z,2.00
2019-01-31T01:18:13.414Z,2.10
2019-01-31T01:21:08.477Z,2.10
2019-01-31T01:24:02.577Z,2.10
2019-01-31T01:27:21.299Z,2.00
2019-01-31T01:30:03.410Z,1.90
2019-01-31T01:32:59.474Z,2.00
2019-01-31T01:36:05.687Z,1.90
2019-01-31T01:39:18.845Z,1.90
2019-01-31T01:42:16.888Z,2.00
2019-01-31T01:45:19.989Z,2.00
2019-01-31T01:48:17.426Z,2.00
2019-01-31T01:51:28.439Z,1.90
2019-01-31T01:54:39.280Z,1.90
2019-01-31T01:57:58.440Z,1.80
2019-01-31T02:01:00.711Z,1.80
2019-01-31T02:03:54.501Z,1.80
2019-01-31T02:07:01.963Z,1.70
2019-01-31T02:10:09.514Z,1.70
2019-01-31T02:13:24.863Z,1.70
2019-01-31T02:16:31.007Z,1.60
2019-01-31T02:19:47.034Z,1.60
2019-01-31T02:22:45.963Z,1.60
2019-01-31T02:25:20.521Z,1.60
2019-01-31T02:28:40.365Z,1.60
2019-01-31T02:31:49.937Z,1.70
2019-01-31T02:34:59.474Z,1.70
2019-01-31T02:38:14.004Z,1.60
2019-01-31T02:41:16.781Z,1.50
2019-01-31T02:44:30.363Z,1.50
2019-01-31T02:47:20.309Z,1.50
2019-01-31T02:50:17.815Z,1.40
2019-01-31T02:53:36.269Z,1.40
2019-01-31T02:56:40.808Z,1.30
2019-01-31T02:59:37.976Z,1.30
2019-01-31T03:02:35.622Z,1.20
2019-01-31T03:05:46.242Z,1.10
2019-01-31T03:08:42.015Z,1.00
2019-01-31T03:11:38.089Z,1.00
2019-01-31T03:14:57.542Z,0.90
2019-01-31T03:18:17.049Z,1.00
2019-01-31T03:21:27.853Z,0.80
2019-01-31T03:24:34.813Z,0.70
2019-01-31T03:27:29.439Z,0.70
2019-01-31T03:30:42.292Z,0.70
2019-01-31T03:34:00.504Z,0.60
2019-01-31T03:36:53.485Z,0.60
2019-01-31T03:40:06.242Z,0.50
2019-01-31T03:43:04.925Z,0.40
2019-01-31T03:46:11.342Z,0.40
2019-01-31T03:49:01.458Z,0.40
2019-01-31T03:51:55.353Z,0.40
2019-01-31T03:54:56.290Z,0.40
2019-01-31T03:57:57.234Z,0.40
2019-01-31T04:01:09.367Z,0.40
2019-01-31T04:04:09.765Z,0.40
2019-01-31T04:06:39.537Z,0.30
2019-01-31T04:09:10.878Z,0.30
2019-01-31T04:11:40.216Z,0.30
2019-01-31T04:14:09.588Z,0.30
2019-01-31T04:16:38.945Z,0.30
2019-01-31T04:19:08.438Z,0.30
2019-01-31T04:21:37.897Z,0.40
2019-01-31T04:24:07.276Z,0.40
2019-01-31T04:26:36.654Z,0.30
2019-01-31T04:29:06.143Z,0.10
2019-01-31T04:31:35.544Z,-0.10
2019-01-31T04:34:04.908Z,-0.20
2019-01-31T04:36:34.269Z,-0.30
2019-01-31T04:39:05.307Z,-0.50
2019-01-31T04:41:34.619Z,-0.50
2019-01-31T04:44:04.178Z,-0.60
2019-01-31T04:46:33.515Z,-0.60
2019-01-31T04:49:03.181Z,-0.60
2019-01-31T04:51:32.560Z,-0.60
2019-01-31T04:54:02.193Z,-0.60
2019-01-31T04:56:31.530Z,-0.60
2019-01-31T04:59:01.020Z,-0.60
2019-01-31T05:01:30.702Z,-0.70
2019-01-31T05:04:00.192Z,-0.70
2019-01-31T05:06:29.510Z,-0.70
2019-01-31T05:08:58.839Z,-0.80
2019-01-31T05:11:28.230Z,-0.90
2019-01-31T05:13:57.661Z,-1.00
2019-01-31T05:16:27.108Z,-1.00
2019-01-31T05:18:56.501Z,-1.10
2019-01-31T05:21:25.926Z,-1.20
2019-01-31T05:23:55.717Z,-1.30
2019-01-31T05:26:25.097Z,-1.20
2019-01-31T05:28:54.415Z,-1.20
2019-01-31T05:31:23.841Z,-1.10
2019-01-31T05:33:53.266Z,-1.20
2019-01-31T05:36:22.631Z,-1.10
2019-01-31T05:38:52.176Z,-1.20
2019-01-31T05:41:21.672Z,-1.30
2019-01-31T05:43:51.062Z,-1.30
2019-01-31T05:46:20.585Z,-1.30
2019-01-31T05:48:50.043Z,-1.30
2019-01-31T05:51:19.636Z,-1.30
2019-01-31T05:53:49.203Z,-1.30
2019-01-31T05:56:18.595Z,-1.40
2019-01-31T05:58:50.686Z,-1.30
2019-01-31T06:01:20.156Z,-1.30
2019-01-31T06:03:49.553Z,-1.30
2019-01-31T06:06:19.053Z,-1.40
2019-01-31T06:08:48.482Z,-1.50
2019-01-31T06:11:17.943Z,-1.50
2019-01-31T06:13:47.491Z,-1.50
2019-01-31T06:16:17.104Z,-1.50
2019-01-31T06:18:46.566Z,-1.50
2019-01-31T06:21:16.031Z,-1.50
2019-01-31T06:23:45.495Z,-1.50
2019-01-31T06:26:15.082Z,-1.50
2019-01-31T06:28:44.574Z,-1.60
2019-01-31T06:31:14.098Z,-1.50
2019-01-31T06:33:43.529Z,-1.40
2019-01-31T06:36:13.142Z,-1.40
2019-01-31T06:38:42.545Z,-1.50
2019-01-31T06:41:18.250Z,-1.40
2019-01-31T06:43:43.056Z,-1.40
2019-01-31T06:46:12.471Z,-1.50
2019-01-31T06:48:41.902Z,-1.50
2019-01-31T06:51:11.478Z,-1.50
2019-01-31T06:53:40.888Z,-1.60
2019-01-31T06:56:10.348Z,-1.60
2019-01-31T06:58:41.184Z,-1.50
2019-01-31T07:01:10.954Z,-1.50
2019-01-31T07:03:40.412Z,-1.50
2019-01-31T07:06:09.862Z,-1.50
2019-01-31T07:08:39.327Z,-1.60
2019-01-31T07:11:08.873Z,-1.50
2019-01-31T07:13:38.388Z,-1.50
2019-01-31T07:16:08.255Z,-1.40
2019-01-31T07:18:37.556Z,-1.20
2019-01-31T07:21:06.993Z,-1.10
2019-01-31T07:23:36.494Z,-1.10
2019-01-31T07:26:06.096Z,-1.00
2019-01-31T07:28:35.632Z,-1.00
2019-01-31T07:31:05.563Z,-0.90
2019-01-31T07:33:34.916Z,-1.00
2019-01-31T07:36:04.535Z,-0.90
2019-01-31T07:38:33.937Z,-1.00
2019-01-31T07:41:03.513Z,-1.00
2019-01-31T07:43:33.008Z,-0.80
2019-01-31T07:46:02.578Z,-0.80
2019-01-31T07:48:31.936Z,-0.60
2019-01-31T07:51:01.542Z,-0.50
2019-01-31T07:53:31.026Z,-0.50
2019-01-31T07:56:00.512Z,-0.60
2019-01-31T07:58:29.962Z,-0.70
2019-01-31T08:00:59.542Z,-0.60
2019-01-31T08:03:29.131Z,-0.60
2019-01-31T08:05:58.639Z,-0.50
2019-01-31T08:08:28.259Z,-0.40
2019-01-31T08:10:57.713Z,-0.40
2019-01-31T08:13:27.212Z,-0.30
2019-01-31T08:15:56.696Z,-0.20
2019-01-31T08:18:26.076Z,-0.30
2019-01-31T08:20:55.591Z,-0.30
2019-01-31T08:23:25.026Z,-0.20
2019-01-31T08:25:54.358Z,-0.10
2019-01-31T08:28:23.825Z,0.00
2019-01-31T08:30:53.305Z,0.00
2019-01-31T08:33:22.683Z,0.10
2019-01-31T08:35:52.123Z,0.20
2019-01-31T08:38:21.604Z,0.30
2019-01-31T08:40:50.989Z,0.30
2019-01-31T08:43:20.660Z,0.30
2019-01-31T08:45:56.385Z,0.40
2019-01-31T08:48:25.963Z,0.40
2019-01-31T08:50:55.560Z,0.40
2019-01-31T08:53:25.069Z,0.40
2019-01-31T08:55:54.571Z,0.40
2019-01-31T08:58:24.002Z,0.50
2019-01-31T09:00:53.603Z,0.40
2019-01-31T09:03:23.583Z,0.50
2019-01-31T09:05:53.289Z,0.50
2019-01-31T09:08:22.791Z,0.50
2019-01-31T09:10:52.259Z,0.50
2019-01-31T09:13:21.717Z,0.60
2019-01-31T09:15:51.211Z,0.60
2019-01-31T09:18:20.741Z,0.70
2019-01-31T09:21:05.930Z,0.80
2019-01-31T09:24:08.458Z,0.90
2019-01-31T09:27:31.537Z,1.10
2019-01-31T09:30:19.778Z,1.20
2019-01-31T09:33:21.754Z,1.10
2019-01-31T09:36:23.749Z,1.20
2019-01-31T09:39:29.221Z,1.20
2019-01-31T09:42:28.217Z,1.40
2019-01-31T09:45:19.592Z,1.50
2019-01-31T09:48:31.638Z,1.50
2019-01-31T09:51:30.931Z,1.60
2019-01-31T09:54:14.578Z,1.80
2019-01-31T09:57:22.414Z,1.70
2019-01-31T10:00:07.435Z,1.70
2019-01-31T10:03:34.625Z,1.80
2019-01-31T10:06:51.830Z,1.70
2019-01-31T10:09:43.195Z,1.80
2019-01-31T10:12:44.421Z,1.90
2019-01-31T10:16:00.929Z,1.90
2019-01-31T10:19:04.822Z,1.70
2019-01-31T10:22:18.881Z,1.80
2019-01-31T10:25:19.876Z,1.70
2019-01-31T10:28:28.572Z,1.70
2019-01-31T10:31:26.719Z,1.70
2019-01-31T10:34:23.921Z,1.70
2019-01-31T10:37:37.030Z,1.70
2019-01-31T10:40:19.855Z,1.90
2019-01-31T10:43:16.421Z,2.10
2019-01-31T10:45:53.885Z,2.20
2019-01-31T10:48:51.934Z,2.30
2019-01-31T10:52:01.366Z,2.40
2019-01-31T10:55:16.741Z,2.50
2019-01-31T10:58:08.713Z,2.60
2019-01-31T11:01:15.630Z,2.70
2019-01-31T11:04:28.718Z,2.80
2019-01-31T11:07:28.023Z,2.90
2019-01-31T11:10:37.304Z,3.00
2019-01-31T11:13:40.079Z,2.90
2019-01-31T11:16:46.567Z,3.00
2019-01-31T11:19:51.742Z,3.20
2019-01-31T11:22:48.608Z,3.40
2019-01-31T11:26:08.429Z,3.40
2019-01-31T11:29:27.963Z,3.40
2019-01-31T11:32:20.659Z,3.60
2019-01-31T11:35:22.686Z,3.60
2019-01-31T11:38:11.678Z,3.80
2019-01-31T11:41:28.142Z,3.70
2019-01-31T11:44:38.041Z,3.60
2019-01-31T11:47:20.231Z,3.70
2019-01-31T11:50:26.639Z,3.70
2019-01-31T11:53:11.081Z,3.80
2019-01-31T11:56:15.110Z,3.80
2019-01-31T11:59:23.015Z,4.00
2019-01-31T12:01:52.421Z,4.10
2019-01-31T12:04:22.130Z,4.20
2019-01-31T12:06:51.742Z,4.10
2019-01-31T12:09:22.384Z,4.00
2019-01-31T12:11:52.245Z,4.00
2019-01-31T12:14:21.752Z,4.00
2019-01-31T12:16:51.223Z,4.00
2019-01-31T12:19:20.894Z,4.20
2019-01-31T12:21:50.397Z,4.30
2019-01-31T12:24:19.792Z,4.20
2019-01-31T12:26:49.220Z,4.10
2019-01-31T12:29:19.676Z,4.10
2019-01-31T12:31:49.135Z,4.10
2019-01-31T12:34:18.617Z,4.00
2019-01-31T12:36:48.048Z,3.90
2019-01-31T12:39:17.586Z,3.90
2019-01-31T12:41:46.961Z,3.90
2019-01-31T12:44:16.461Z,3.90
2019-01-31T12:46:46.081Z,3.90
2019-01-31T12:49:16.119Z,3.90
2019-01-31T15:17:33.980Z,3.40
2019-01-31T15:28:41.286Z,3.50
2019-01-31T15:31:10.898Z,3.60
2019-01-31T15:33:40.383Z,3.50
2019-01-31T15:36:09.956Z,3.40
2019-01-31T15:41:15.441Z,3.30
2019-01-31T15:43:44.914Z,3.20
2019-01-31T15:46:14.402Z,3.20
2019-01-31T15:48:43.928Z,3.10
2019-01-31T15:51:13.411Z,3.00
2019-01-31T15:53:42.833Z,2.90
2019-01-31T15:56:12.722Z,2.90
2019-01-31T15:58:42.747Z,2.90
2019-01-31T16:01:14.592Z,2.80
2019-01-31T16:03:44.107Z,2.80
2019-01-31T16:06:13.694Z,2.70
2019-01-31T16:08:43.175Z,2.60
2019-01-31T16:11:12.676Z,2.60
2019-01-31T16:13:42.175Z,2.50
2019-01-31T16:16:11.768Z,2.60
2019-01-31T16:18:41.191Z,2.60
2019-01-31T16:21:10.699Z,2.60
2019-01-31T16:23:41.104Z,2.60
2019-01-31T16:26:10.892Z,2.70
2019-01-31T16:28:40.337Z,2.70
2019-01-31T16:31:09.803Z,2.70
2019-01-31T16:33:41.251Z,2.70
2019-01-31T16:36:10.744Z,2.70
2019-01-31T16:38:40.253Z,2.70
2019-01-31T16:41:10.034Z,2.80
2019-01-31T16:43:39.482Z,2.70
2019-01-31T16:46:12.342Z,2.70
2019-01-31T16:48:42.268Z,2.70
2019-01-31T16:51:11.842Z,2.70
2019-01-31T16:53:41.751Z,2.70
2019-01-31T16:56:11.353Z,2.60
2019-01-31T16:58:41.165Z,2.60
2019-01-31T17:01:10.762Z,2.60
2019-01-31T17:03:40.232Z,2.60
2019-01-31T17:06:10.701Z,2.60
2019-01-31T17:08:40.208Z,2.50
2019-01-31T17:11:09.826Z,2.50
2019-01-31T17:13:39.655Z,2.50
2019-01-31T17:21:35.583Z,2.50
2019-01-31T17:24:05.438Z,2.40
2019-01-31T17:26:36.161Z,2.40
2019-01-31T17:29:07.305Z,2.40
2019-01-31T17:31:36.801Z,2.40
2019-01-31T17:34:06.300Z,2.50
2019-01-31T17:36:35.934Z,2.50
2019-01-31T17:39:09.207Z,2.50
2019-01-31T17:41:38.753Z,2.40
2019-01-31T17:44:08.333Z,2.40
2019-01-31T17:46:39.376Z,2.30
2019-01-31T17:49:09.016Z,2.30
2019-01-31T17:51:38.981Z,2.30
2019-01-31T17:54:08.563Z,2.30
2019-01-31T17:56:38.132Z,2.30
2019-01-31T17:59:07.723Z,2.30
2019-01-31T18:01:37.230Z,2.30
2019-01-31T18:04:06.846Z,2.40
2019-01-31T18:06:38.478Z,2.40
2019-01-31T18:09:10.208Z,2.40
2019-01-31T18:11:39.763Z,2.40
2019-01-31T18:14:09.391Z,2.40
2019-01-31T18:16:39.125Z,2.40
2019-01-31T18:22:32.910Z,2.40
2019-01-31T18:25:02.384Z,2.40
2019-01-31T18:27:32.009Z,2.40
2019-01-31T18:30:02.568Z,2.40
2019-01-31T18:32:36.653Z,2.30
2019-01-31T18:35:09.304Z,2.30
2019-01-31T18:37:39.333Z,2.40
2019-01-31T18:40:13.017Z,2.30
2019-01-31T18:42:43.860Z,2.40
2019-01-31T18:45:16.701Z,2.40
2019-01-31T18:47:46.697Z,2.40
2019-01-31T18:50:20.009Z,2.50
2019-01-31T18:52:49.768Z,2.40
2019-01-31T18:55:20.221Z,2.40
2019-01-31T18:57:51.001Z,2.40
2019-01-31T19:00:32.459Z,2.40
2019-01-31T19:03:01.996Z,2.40
2019-01-31T19:05:31.840Z,2.30
2019-01-31T19:08:01.507Z,2.30
2019-01-31T19:14:14.355Z,2.30
2019-01-31T19:16:43.343Z,2.10
2019-01-31T19:19:13.027Z,2.10
2019-01-31T19:21:43.726Z,2.10
2019-01-31T19:24:13.412Z,2.10
2019-01-31T19:26:43.018Z,2.10
2019-01-31T19:29:12.572Z,2.00
2019-01-31T19:31:42.348Z,2.00
2019-01-31T19:34:12.148Z,2.10
2019-01-31T19:36:44.014Z,2.10
2019-01-31T19:39:22.862Z,2.00
2019-01-31T19:41:53.698Z,2.00
2019-01-31T19:44:24.743Z,2.00
2019-01-31T19:46:54.343Z,1.90
2019-01-31T19:49:25.341Z,1.90
2019-01-31T19:51:55.025Z,1.80
2019-01-31T19:54:24.739Z,1.80
2019-01-31T19:56:54.959Z,1.70
2019-01-31T19:59:25.912Z,1.70
2019-01-31T20:01:55.531Z,1.60
2019-01-31T20:04:25.270Z,1.60
2019-01-31T20:06:55.118Z,1.60
2019-01-31T20:09:29.286Z,1.60
2019-01-31T20:11:58.972Z,1.60
2019-01-31T20:14:28.751Z,1.50
2019-01-31T20:16:58.743Z,1.50
2019-01-31T20:19:28.396Z,1.50
2019-01-31T20:21:58.940Z,1.50
2019-01-31T20:24:28.714Z,1.50
2019-01-31T20:26:58.309Z,1.40
2019-01-31T20:29:28.147Z,1.40
2019-01-31T20:31:57.756Z,1.40
2019-01-31T20:34:29.876Z,1.40
2019-01-31T20:36:59.587Z,1.40
2019-01-31T20:39:35.597Z,1.40
2019-01-31T20:42:06.080Z,1.30
2019-01-31T20:44:38.259Z,1.40
2019-01-31T20:47:07.967Z,1.30
2019-01-31T20:49:39.661Z,1.20
2019-01-31T20:52:09.398Z,1.20
2019-01-31T20:54:40.927Z,1.20
2019-01-31T20:57:10.811Z,1.30
2019-01-31T20:59:41.550Z,1.30
2019-01-31T21:02:13.571Z,1.40
2019-01-31T21:04:43.561Z,1.40
2019-01-31T21:07:19.453Z,1.40
2019-01-31T21:09:49.763Z,1.40
2019-01-31T21:12:19.373Z,1.40
2019-01-31T21:14:53.934Z,1.40
2019-01-31T21:17:24.303Z,1.30
2019-01-31T21:19:54.563Z,1.30
2019-01-31T21:22:24.695Z,1.20
2019-01-31T21:24:54.680Z,1.20
2019-01-31T21:27:24.289Z,1.10
2019-01-31T21:29:54.009Z,1.20
2019-01-31T21:32:23.750Z,1.20
2019-01-31T21:34:53.343Z,1.20
2019-01-31T21:37:22.910Z,1.20
2019-01-31T21:39:52.493Z,1.10
2019-01-31T21:42:22.037Z,1.10
2019-01-31T21:44:52.022Z,1.10
2019-01-31T21:47:21.617Z,1.10
2019-01-31T21:49:51.217Z,1.00
2019-01-31T21:52:20.816Z,1.00
2019-01-31T21:54:50.804Z,1.00
2019-01-31T21:57:20.280Z,1.00
2019-01-31T21:59:50.451Z,1.00
2019-01-31T22:02:23.034Z,1.00
2019-01-31T22:04:52.549Z,1.00
2019-01-31T22:07:22.135Z,1.00
2019-01-31T22:09:51.703Z,1.00
2019-01-31T22:12:21.193Z,1.00
2019-01-31T22:14:50.665Z,1.00
2019-01-31T22:17:21.014Z,1.00
2019-01-31T22:19:50.606Z,1.00
2019-01-31T22:22:20.143Z,1.00
2019-01-31T22:24:49.706Z,1.00
2019-01-31T22:27:19.214Z,1.00
2019-01-31T22:29:50.712Z,0.90
2019-01-31T22:32:20.236Z,1.00
2019-01-31T22:34:49.766Z,0.90
2019-01-31T22:37:19.618Z,0.90
2019-01-31T22:39:49.137Z,0.90
2019-01-31T22:42:18.614Z,0.90
2019-01-31T22:44:47.995Z,0.90
2019-01-31T22:47:25.674Z,0.90
2019-01-31T22:49:49.943Z,0.90
2019-01-31T22:52:19.385Z,0.90
2019-01-31T22:54:48.824Z,0.80
2019-01-31T22:57:18.371Z,0.80
2019-01-31T22:59:47.844Z,0.80
2019-01-31T23:02:17.329Z,0.90
2019-01-31T23:04:46.802Z,0.90
2019-01-31T23:07:16.217Z,0.80
2019-01-31T23:09:46.740Z,0.90
2019-01-31T23:12:16.201Z,0.90
2019-01-31T23:14:45.777Z,0.90
2019-01-31T23:17:15.150Z,0.90
2019-01-31T23:19:44.582Z,0.90
2019-01-31T23:22:14.049Z,0.90
2019-01-31T23:24:43.644Z,1.00
2019-01-31T23:27:13.162Z,1.00
2019-01-31T23:29:42.745Z,1.10
2019-01-31T23:32:12.295Z,1.10
2019-01-31T23:34:41.696Z,1.10
2019-01-31T23:37:11.139Z,1.10
2019-01-31T23:39:40.487Z,1.20
2019-01-31T23:42:09.852Z,1.20
2019-01-31T23:44:40.848Z,1.20
2019-01-31T23:47:10.290Z,1.30
2019-01-31T23:49:39.641Z,1.30
2019-01-31T23:52:09.062Z,1.40
2019-01-31T23:54:38.498Z,1.30
2019-01-31T23:57:07.911Z,1.30
2019-01-31T23:59:39.105Z,1.30
